Freetown, Massachusetts
Current Conditions -  °F | °C
As of 5:52 PM on Monday 24 Nov 2014 (Local Time) from KTAN Reporting Station
Overcast Overcast  
Wind Chill: 63°   Ceiling: 1200
Heat Index: 63°   Visibility: 10mi
Dew Point: 58°   Wind: 16mph
Humidity: 84%   Direction: 210°SSW
Pressure: 29.65"   Gusts: 35mph
Location:  41.782°N, 71.0542°W
Report Text: KTAN 242252Z AUTO 21014G30KT 180V240 10SM OVC012 17/14 A2965 RMK AO2 PK WND 19030/2249 SLP040 T01720144
Loading
Personal Weather Stations






























Interactive Weather Map New forecast layout! Learn more

10-Day Weather Forecast

Advertisements
Track Severe Weather on mobile